In Rescue
 
Open Full Screen Window  High Contrast Mode
Wind Gusting 14 knots
07
March 01, 2024 3:40 PM EST
Weather Information
Wind Direction
  210 °
Wind Speed
  07 kt (8 mph)
Wind Gust
  14 kt (16 mph)
Altimeter
30.06 in
Visibility
10 SM
Temperature
10° C
50° F
Dewpoint
-06° C
21° F
Humidity
32%
Sky Condition
Clear
VFR

METAR KCVX 012040Z AUTO 21007G14KT 10SM CLR 10/M06 A3006 RMK AO2 T00981064

FAA Disclaimer: The data displayed is for advisory purposes only and is not to be used for flight planning or operations.